sensor_id;sensor_type;location;lat;lon;timestamp;P1;durP1;ratioP1;P2;durP2;ratioP2
34988;SDS011;21192;40.182;44.516;2023-02-18T00:01:17;22.73;;;8.52;;
34988;SDS011;21192;40.182;44.516;2023-02-18T00:03:45;17.17;;;7.15;;
34988;SDS011;21192;40.182;44.516;2023-02-18T00:06:27;22.13;;;8.35;;
34988;SDS011;21192;40.182;44.516;2023-02-18T00:08:55;26.25;;;8.65;;
34988;SDS011;21192;40.182;44.516;2023-02-18T00:11:22;19.45;;;7.18;;
34988;SDS011;21192;40.182;44.516;2023-02-18T00:13:52;19.77;;;7.28;;
34988;SDS011;21192;40.182;44.516;2023-02-18T00:16:20;24.35;;;7.65;;
34988;SDS011;21192;40.182;44.516;2023-02-18T00:18:47;19.50;;;7.45;;
34988;SDS011;21192;40.182;44.516;2023-02-18T00:21:13;23.98;;;7.97;;
34988;SDS011;21192;40.182;44.516;2023-02-18T00:23:39;21.50;;;7.65;;
34988;SDS011;21192;40.182;44.516;2023-02-18T00:26:06;21.15;;;8.07;;
34988;SDS011;21192;40.182;44.516;2023-02-18T00:28:36;21.67;;;7.28;;
34988;SDS011;21192;40.182;44.516;2023-02-18T00:31:09;21.40;;;7.65;;
34988;SDS011;21192;40.182;44.516;2023-02-18T00:33:37;13.50;;;5.95;;
34988;SDS011;21192;40.182;44.516;2023-02-18T00:36:05;18.48;;;6.70;;
34988;SDS011;21192;40.182;44.516;2023-02-18T00:38:33;16.38;;;6.57;;
34988;SDS011;21192;40.182;44.516;2023-02-18T00:40:59;17.55;;;6.82;;
34988;SDS011;21192;40.182;44.516;2023-02-18T00:43:25;17.95;;;7.30;;
34988;SDS011;21192;40.182;44.516;2023-02-18T00:45:51;16.42;;;6.53;;
34988;SDS011;21192;40.182;44.516;2023-02-18T00:48:17;26.67;;;11.32;;
34988;SDS011;21192;40.182;44.516;2023-02-18T00:50:44;17.40;;;7.65;;
34988;SDS011;21192;40.182;44.516;2023-02-18T00:53:10;13.20;;;5.45;;
34988;SDS011;21192;40.182;44.516;2023-02-18T00:55:40;14.48;;;6.03;;
34988;SDS011;21192;40.182;44.516;2023-02-18T00:58:07;18.30;;;6.10;;
34988;SDS011;21192;40.182;44.516;2023-02-18T01:00:33;20.02;;;6.93;;
34988;SDS011;21192;40.182;44.516;2023-02-18T01:02:59;15.93;;;5.50;;
34988;SDS011;21192;40.182;44.516;2023-02-18T01:05:25;15.82;;;6.18;;
34988;SDS011;21192;40.182;44.516;2023-02-18T01:07:51;18.20;;;6.47;;
34988;SDS011;21192;40.182;44.516;2023-02-18T01:10:16;17.13;;;6.15;;
34988;SDS011;21192;40.182;44.516;2023-02-18T01:12:42;17.27;;;7.78;;
34988;SDS011;21192;40.182;44.516;2023-02-18T01:15:09;14.27;;;5.88;;
34988;SDS011;21192;40.182;44.516;2023-02-18T01:17:37;14.45;;;7.05;;
34988;SDS011;21192;40.182;44.516;2023-02-18T01:20:04;15.98;;;6.47;;
34988;SDS011;21192;40.182;44.516;2023-02-18T01:22:30;20.50;;;7.07;;
34988;SDS011;21192;40.182;44.516;2023-02-18T01:24:56;15.93;;;6.13;;
34988;SDS011;21192;40.182;44.516;2023-02-18T01:27:21;19.50;;;6.25;;
34988;SDS011;21192;40.182;44.516;2023-02-18T01:29:47;14.38;;;5.57;;
34988;SDS011;21192;40.182;44.516;2023-02-18T01:32:14;18.90;;;6.88;;
34988;SDS011;21192;40.182;44.516;2023-02-18T01:34:40;20.45;;;6.78;;
34988;SDS011;21192;40.182;44.516;2023-02-18T01:37:06;21.13;;;6.53;;
34988;SDS011;21192;40.182;44.516;2023-02-18T01:39:32;17.70;;;7.15;;
34988;SDS011;21192;40.182;44.516;2023-02-18T01:41:57;17.33;;;6.25;;
34988;SDS011;21192;40.182;44.516;2023-02-18T01:44:24;16.08;;;6.85;;
34988;SDS011;21192;40.182;44.516;2023-02-18T01:46:51;18.80;;;7.13;;
34988;SDS011;21192;40.182;44.516;2023-02-18T01:49:18;18.27;;;6.35;;
34988;SDS011;21192;40.182;44.516;2023-02-18T01:51:52;16.50;;;6.50;;
34988;SDS011;21192;40.182;44.516;2023-02-18T01:54:24;15.98;;;6.82;;
34988;SDS011;21192;40.182;44.516;2023-02-18T01:59:38;14.27;;;5.80;;
34988;SDS011;21192;40.182;44.516;2023-02-18T02:02:06;17.08;;;6.00;;
34988;SDS011;21192;40.182;44.516;2023-02-18T02:04:35;14.93;;;5.63;;
34988;SDS011;21192;40.182;44.516;2023-02-18T02:07:01;19.23;;;6.35;;
34988;SDS011;21192;40.182;44.516;2023-02-18T02:09:27;16.02;;;6.43;;
34988;SDS011;21192;40.182;44.516;2023-02-18T02:17:10;14.98;;;5.75;;
34988;SDS011;21192;40.182;44.516;2023-02-18T02:30:51;17.38;;;5.93;;
34988;SDS011;21192;40.182;44.516;2023-02-18T02:37:03;15.32;;;6.85;;
34988;SDS011;21192;40.182;44.516;2023-02-18T02:39:13;17.65;;;6.47;;
34988;SDS011;21192;40.182;44.516;2023-02-18T02:42:02;13.93;;;5.45;;
34988;SDS011;21192;40.182;44.516;2023-02-18T02:44:56;14.20;;;5.22;;
34988;SDS011;21192;40.182;44.516;2023-02-18T02:47:59;13.52;;;5.20;;
34988;SDS011;21192;40.182;44.516;2023-02-18T02:50:53;15.05;;;5.65;;
34988;SDS011;21192;40.182;44.516;2023-02-18T02:53:50;16.60;;;5.25;;
34988;SDS011;21192;40.182;44.516;2023-02-18T02:56:16;14.52;;;5.45;;
34988;SDS011;21192;40.182;44.516;2023-02-18T02:58:47;14.30;;;4.82;;
34988;SDS011;21192;40.182;44.516;2023-02-18T03:21:02;13.20;;;5.28;;
34988;SDS011;21192;40.182;44.516;2023-02-18T03:23:37;15.63;;;5.68;;
34988;SDS011;21192;40.182;44.516;2023-02-18T03:26:09;13.93;;;6.05;;
34988;SDS011;21192;40.182;44.516;2023-02-18T03:28:37;17.20;;;6.07;;
34988;SDS011;21192;40.182;44.516;2023-02-18T03:31:06;12.88;;;5.10;;
34988;SDS011;21192;40.182;44.516;2023-02-18T03:33:39;14.80;;;6.47;;
34988;SDS011;21192;40.182;44.516;2023-02-18T03:36:10;15.35;;;5.38;;
34988;SDS011;21192;40.182;44.516;2023-02-18T03:38:39;18.38;;;5.90;;
34988;SDS011;21192;40.182;44.516;2023-02-18T03:41:09;15.45;;;5.03;;
34988;SDS011;21192;40.182;44.516;2023-02-18T03:43:35;13.32;;;5.28;;
34988;SDS011;21192;40.182;44.516;2023-02-18T03:46:01;14.60;;;5.65;;
34988;SDS011;21192;40.182;44.516;2023-02-18T03:48:27;19.13;;;5.57;;
34988;SDS011;21192;40.182;44.516;2023-02-18T03:50:53;20.17;;;6.45;;
34988;SDS011;21192;40.182;44.516;2023-02-18T03:53:19;13.98;;;5.35;;
34988;SDS011;21192;40.182;44.516;2023-02-18T03:55:45;15.05;;;5.95;;
34988;SDS011;21192;40.182;44.516;2023-02-18T03:58:11;15.05;;;6.10;;
34988;SDS011;21192;40.182;44.516;2023-02-18T04:00:37;14.20;;;5.93;;
34988;SDS011;21192;40.182;44.516;2023-02-18T04:03:03;13.90;;;5.47;;
34988;SDS011;21192;40.182;44.516;2023-02-18T04:05:28;15.82;;;6.60;;
34988;SDS011;21192;40.182;44.516;2023-02-18T04:07:54;14.60;;;6.38;;
34988;SDS011;21192;40.182;44.516;2023-02-18T04:10:20;17.70;;;7.15;;
34988;SDS011;21192;40.182;44.516;2023-02-18T04:12:46;16.45;;;6.53;;
34988;SDS011;21192;40.182;44.516;2023-02-18T04:15:12;22.92;;;6.55;;
34988;SDS011;21192;40.182;44.516;2023-02-18T04:17:38;19.80;;;6.82;;
34988;SDS011;21192;40.182;44.516;2023-02-18T04:20:04;14.23;;;6.53;;
34988;SDS011;21192;40.182;44.516;2023-02-18T04:22:31;17.73;;;6.75;;
34988;SDS011;21192;40.182;44.516;2023-02-18T04:24:56;23.33;;;7.95;;
34988;SDS011;21192;40.182;44.516;2023-02-18T04:27:24;15.57;;;7.32;;
34988;SDS011;21192;40.182;44.516;2023-02-18T04:29:50;19.52;;;7.95;;
34988;SDS011;21192;40.182;44.516;2023-02-18T04:32:16;25.45;;;8.00;;
34988;SDS011;21192;40.182;44.516;2023-02-18T04:34:42;20.80;;;8.90;;
34988;SDS011;21192;40.182;44.516;2023-02-18T04:37:08;23.98;;;7.97;;
34988;SDS011;21192;40.182;44.516;2023-02-18T04:39:34;20.17;;;8.68;;
34988;SDS011;21192;40.182;44.516;2023-02-18T04:41:59;19.13;;;9.15;;
34988;SDS011;21192;40.182;44.516;2023-02-18T04:44:25;21.17;;;9.40;;
34988;SDS011;21192;40.182;44.516;2023-02-18T04:46:51;22.75;;;10.30;;
34988;SDS011;21192;40.182;44.516;2023-02-18T04:49:17;23.02;;;10.98;;
34988;SDS011;21192;40.182;44.516;2023-02-18T04:51:43;24.13;;;10.38;;
34988;SDS011;21192;40.182;44.516;2023-02-18T04:54:08;23.00;;;10.77;;
34988;SDS011;21192;40.182;44.516;2023-02-18T04:56:34;27.92;;;11.18;;
34988;SDS011;21192;40.182;44.516;2023-02-18T04:59:00;26.05;;;10.57;;
34988;SDS011;21192;40.182;44.516;2023-02-18T05:01:26;25.10;;;11.38;;
34988;SDS011;21192;40.182;44.516;2023-02-18T05:03:52;20.83;;;9.65;;
34988;SDS011;21192;40.182;44.516;2023-02-18T05:06:17;25.10;;;11.15;;
34988;SDS011;21192;40.182;44.516;2023-02-18T05:08:43;25.38;;;11.55;;
34988;SDS011;21192;40.182;44.516;2023-02-18T05:11:09;31.88;;;12.65;;
34988;SDS011;21192;40.182;44.516;2023-02-18T05:13:35;27.10;;;14.13;;
34988;SDS011;21192;40.182;44.516;2023-02-18T05:16:01;29.02;;;13.98;;
34988;SDS011;21192;40.182;44.516;2023-02-18T05:18:27;28.98;;;16.15;;
34988;SDS011;21192;40.182;44.516;2023-02-18T05:20:52;29.10;;;13.40;;
34988;SDS011;21192;40.182;44.516;2023-02-18T05:23:18;19.27;;;10.27;;
34988;SDS011;21192;40.182;44.516;2023-02-18T05:25:45;21.58;;;10.15;;
34988;SDS011;21192;40.182;44.516;2023-02-18T05:28:11;22.08;;;10.32;;
34988;SDS011;21192;40.182;44.516;2023-02-18T05:30:37;22.58;;;10.43;;
34988;SDS011;21192;40.182;44.516;2023-02-18T05:33:03;18.75;;;10.68;;
34988;SDS011;21192;40.182;44.516;2023-02-18T05:35:29;19.05;;;10.77;;
34988;SDS011;21192;40.182;44.516;2023-02-18T05:37:55;30.35;;;19.65;;
34988;SDS011;21192;40.182;44.516;2023-02-18T05:40:21;28.98;;;11.63;;
34988;SDS011;21192;40.182;44.516;2023-02-18T05:42:46;20.90;;;11.88;;
34988;SDS011;21192;40.182;44.516;2023-02-18T05:45:12;24.15;;;9.60;;
34988;SDS011;21192;40.182;44.516;2023-02-18T05:47:38;23.77;;;15.43;;
34988;SDS011;21192;40.182;44.516;2023-02-18T05:50:04;23.60;;;11.70;;
34988;SDS011;21192;40.182;44.516;2023-02-18T05:52:30;27.45;;;13.02;;
34988;SDS011;21192;40.182;44.516;2023-02-18T05:54:56;38.15;;;13.48;;
34988;SDS011;21192;40.182;44.516;2023-02-18T05:57:22;25.95;;;12.18;;
34988;SDS011;21192;40.182;44.516;2023-02-18T05:59:48;29.48;;;13.50;;
34988;SDS011;21192;40.182;44.516;2023-02-18T06:02:14;30.35;;;14.40;;
34988;SDS011;21192;40.182;44.516;2023-02-18T06:04:40;38.80;;;15.95;;
34988;SDS011;21192;40.182;44.516;2023-02-18T06:07:05;38.90;;;16.15;;
34988;SDS011;21192;40.182;44.516;2023-02-18T06:09:31;28.35;;;14.38;;
34988;SDS011;21192;40.182;44.516;2023-02-18T06:11:57;28.98;;;15.35;;
34988;SDS011;21192;40.182;44.516;2023-02-18T06:14:23;36.63;;;14.82;;
34988;SDS011;21192;40.182;44.516;2023-02-18T06:16:49;33.95;;;14.48;;
34988;SDS011;21192;40.182;44.516;2023-02-18T06:19:15;30.95;;;14.27;;
34988;SDS011;21192;40.182;44.516;2023-02-18T06:21:41;32.53;;;14.45;;
34988;SDS011;21192;40.182;44.516;2023-02-18T06:24:07;33.83;;;14.85;;
34988;SDS011;21192;40.182;44.516;2023-02-18T06:26:33;32.38;;;15.20;;
34988;SDS011;21192;40.182;44.516;2023-02-18T06:28:59;29.60;;;15.18;;
34988;SDS011;21192;40.182;44.516;2023-02-18T06:31:25;27.75;;;13.98;;
34988;SDS011;21192;40.182;44.516;2023-02-18T06:33:50;23.98;;;13.73;;
34988;SDS011;21192;40.182;44.516;2023-02-18T06:36:16;37.85;;;15.88;;
34988;SDS011;21192;40.182;44.516;2023-02-18T06:38:43;27.25;;;13.98;;
34988;SDS011;21192;40.182;44.516;2023-02-18T06:41:10;27.65;;;15.05;;
34988;SDS011;21192;40.182;44.516;2023-02-18T06:43:37;19.90;;;11.95;;
34988;SDS011;21192;40.182;44.516;2023-02-18T06:46:04;24.35;;;13.55;;
34988;SDS011;21192;40.182;44.516;2023-02-18T06:48:30;25.27;;;12.93;;
34988;SDS011;21192;40.182;44.516;2023-02-18T06:50:56;31.38;;;19.52;;
34988;SDS011;21192;40.182;44.516;2023-02-18T06:53:22;26.90;;;14.65;;
34988;SDS011;21192;40.182;44.516;2023-02-18T06:55:48;33.85;;;15.55;;
34988;SDS011;21192;40.182;44.516;2023-02-18T06:58:14;40.88;;;26.70;;
34988;SDS011;21192;40.182;44.516;2023-02-18T07:00:41;32.35;;;17.25;;
34988;SDS011;21192;40.182;44.516;2023-02-18T07:03:07;26.58;;;13.15;;
34988;SDS011;21192;40.182;44.516;2023-02-18T07:05:37;28.90;;;13.40;;
34988;SDS011;21192;40.182;44.516;2023-02-18T07:08:03;30.77;;;13.82;;
34988;SDS011;21192;40.182;44.516;2023-02-18T07:10:29;38.08;;;16.67;;
34988;SDS011;21192;40.182;44.516;2023-02-18T07:12:54;45.30;;;14.00;;
34988;SDS011;21192;40.182;44.516;2023-02-18T07:15:20;29.02;;;15.10;;
34988;SDS011;21192;40.182;44.516;2023-02-18T07:17:51;44.10;;;22.10;;
34988;SDS011;21192;40.182;44.516;2023-02-18T07:20:18;37.10;;;14.68;;
34988;SDS011;21192;40.182;44.516;2023-02-18T07:22:44;41.08;;;15.77;;
34988;SDS011;21192;40.182;44.516;2023-02-18T07:25:10;36.75;;;15.10;;
34988;SDS011;21192;40.182;44.516;2023-02-18T07:27:37;31.08;;;14.15;;
34988;SDS011;21192;40.182;44.516;2023-02-18T07:30:03;26.95;;;11.85;;
34988;SDS011;21192;40.182;44.516;2023-02-18T07:32:29;39.10;;;13.55;;
34988;SDS011;21192;40.182;44.516;2023-02-18T07:34:55;29.40;;;13.98;;
34988;SDS011;21192;40.182;44.516;2023-02-18T07:37:21;35.05;;;14.35;;
34988;SDS011;21192;40.182;44.516;2023-02-18T07:39:47;30.40;;;14.88;;
34988;SDS011;21192;40.182;44.516;2023-02-18T07:42:13;32.60;;;15.45;;
34988;SDS011;21192;40.182;44.516;2023-02-18T07:44:39;28.50;;;14.80;;
34988;SDS011;21192;40.182;44.516;2023-02-18T07:47:07;25.85;;;14.23;;
34988;SDS011;21192;40.182;44.516;2023-02-18T07:49:34;29.52;;;14.20;;
34988;SDS011;21192;40.182;44.516;2023-02-18T07:52:00;27.25;;;14.52;;
34988;SDS011;21192;40.182;44.516;2023-02-18T07:54:26;24.00;;;11.48;;
34988;SDS011;21192;40.182;44.516;2023-02-18T07:56:52;23.30;;;11.23;;
34988;SDS011;21192;40.182;44.516;2023-02-18T07:59:21;21.48;;;11.43;;
34988;SDS011;21192;40.182;44.516;2023-02-18T08:01:47;25.05;;;12.27;;
34988;SDS011;21192;40.182;44.516;2023-02-18T08:04:13;33.38;;;14.45;;
34988;SDS011;21192;40.182;44.516;2023-02-18T08:06:40;22.67;;;11.10;;
34988;SDS011;21192;40.182;44.516;2023-02-18T08:09:08;31.50;;;12.85;;
34988;SDS011;21192;40.182;44.516;2023-02-18T08:11:34;32.60;;;13.20;;
34988;SDS011;21192;40.182;44.516;2023-02-18T08:14:00;25.52;;;10.57;;
34988;SDS011;21192;40.182;44.516;2023-02-18T08:16:26;30.02;;;11.45;;
34988;SDS011;21192;40.182;44.516;2023-02-18T08:18:52;26.52;;;11.05;;
34988;SDS011;21192;40.182;44.516;2023-02-18T08:21:20;34.35;;;12.93;;
34988;SDS011;21192;40.182;44.516;2023-02-18T08:23:47;26.40;;;11.98;;
34988;SDS011;21192;40.182;44.516;2023-02-18T08:26:13;22.02;;;11.20;;
34988;SDS011;21192;40.182;44.516;2023-02-18T08:28:39;24.67;;;11.68;;
34988;SDS011;21192;40.182;44.516;2023-02-18T08:31:06;26.70;;;11.20;;
34988;SDS011;21192;40.182;44.516;2023-02-18T08:33:32;23.90;;;11.43;;
34988;SDS011;21192;40.182;44.516;2023-02-18T08:35:58;41.22;;;13.48;;
34988;SDS011;21192;40.182;44.516;2023-02-18T08:38:24;30.35;;;13.43;;
34988;SDS011;21192;40.182;44.516;2023-02-18T08:40:50;34.95;;;12.77;;
34988;SDS011;21192;40.182;44.516;2023-02-18T08:43:25;26.13;;;11.05;;
34988;SDS011;21192;40.182;44.516;2023-02-18T08:45:51;26.13;;;11.00;;
34988;SDS011;21192;40.182;44.516;2023-02-18T08:48:17;29.40;;;13.02;;
34988;SDS011;21192;40.182;44.516;2023-02-18T08:50:42;23.80;;;11.25;;
34988;SDS011;21192;40.182;44.516;2023-02-18T08:53:08;24.80;;;10.57;;
34988;SDS011;21192;40.182;44.516;2023-02-18T08:55:34;30.25;;;11.32;;
34988;SDS011;21192;40.182;44.516;2023-02-18T08:58:03;26.80;;;10.82;;
34988;SDS011;21192;40.182;44.516;2023-02-18T09:00:29;22.20;;;10.82;;
34988;SDS011;21192;40.182;44.516;2023-02-18T09:02:54;42.72;;;22.88;;
34988;SDS011;21192;40.182;44.516;2023-02-18T09:05:20;33.90;;;21.73;;
34988;SDS011;21192;40.182;44.516;2023-02-18T09:07:46;39.15;;;17.95;;
34988;SDS011;21192;40.182;44.516;2023-02-18T09:10:12;29.42;;;13.00;;
34988;SDS011;21192;40.182;44.516;2023-02-18T09:12:38;32.35;;;13.13;;
34988;SDS011;21192;40.182;44.516;2023-02-18T09:15:04;24.02;;;11.15;;
34988;SDS011;21192;40.182;44.516;2023-02-18T09:17:30;26.23;;;12.18;;
34988;SDS011;21192;40.182;44.516;2023-02-18T09:19:57;26.83;;;11.52;;
34988;SDS011;21192;40.182;44.516;2023-02-18T09:22:23;20.85;;;10.55;;
34988;SDS011;21192;40.182;44.516;2023-02-18T09:24:49;28.92;;;12.45;;
34988;SDS011;21192;40.182;44.516;2023-02-18T09:27:15;27.20;;;12.93;;
34988;SDS011;21192;40.182;44.516;2023-02-18T09:29:41;36.60;;;17.85;;
34988;SDS011;21192;40.182;44.516;2023-02-18T09:32:07;26.65;;;10.57;;
34988;SDS011;21192;40.182;44.516;2023-02-18T09:34:35;28.42;;;10.85;;
34988;SDS011;21192;40.182;44.516;2023-02-18T09:37:01;22.40;;;9.75;;
34988;SDS011;21192;40.182;44.516;2023-02-18T09:39:27;23.70;;;10.45;;
34988;SDS011;21192;40.182;44.516;2023-02-18T09:42:00;22.38;;;11.27;;
34988;SDS011;21192;40.182;44.516;2023-02-18T09:44:39;22.40;;;11.82;;
34988;SDS011;21192;40.182;44.516;2023-02-18T09:49:40;24.80;;;11.82;;
34988;SDS011;21192;40.182;44.516;2023-02-18T09:52:21;25.60;;;9.93;;
34988;SDS011;21192;40.182;44.516;2023-02-18T09:54:52;22.42;;;10.20;;
34988;SDS011;21192;40.182;44.516;2023-02-18T09:59:51;20.25;;;10.45;;
34988;SDS011;21192;40.182;44.516;2023-02-18T10:02:24;25.85;;;10.27;;
34988;SDS011;21192;40.182;44.516;2023-02-18T10:04:50;22.40;;;9.55;;
34988;SDS011;21192;40.182;44.516;2023-02-18T10:07:31;25.08;;;10.52;;
34988;SDS011;21192;40.182;44.516;2023-02-18T10:10:02;31.30;;;11.73;;
34988;SDS011;21192;40.182;44.516;2023-02-18T10:12:56;29.20;;;11.07;;
34988;SDS011;21192;40.182;44.516;2023-02-18T10:15:23;31.20;;;11.73;;
34988;SDS011;21192;40.182;44.516;2023-02-18T10:17:52;23.17;;;12.57;;
34988;SDS011;21192;40.182;44.516;2023-02-18T10:20:21;25.20;;;13.60;;
34988;SDS011;21192;40.182;44.516;2023-02-18T10:22:50;21.92;;;10.52;;
34988;SDS011;21192;40.182;44.516;2023-02-18T10:25:19;32.17;;;10.48;;
34988;SDS011;21192;40.182;44.516;2023-02-18T10:27:47;20.05;;;10.02;;
34988;SDS011;21192;40.182;44.516;2023-02-18T10:32:43;28.38;;;10.90;;
34988;SDS011;21192;40.182;44.516;2023-02-18T10:38:16;21.50;;;10.93;;
34988;SDS011;21192;40.182;44.516;2023-02-18T10:41:04;19.77;;;11.52;;
34988;SDS011;21192;40.182;44.516;2023-02-18T10:46:20;26.90;;;12.60;;
34988;SDS011;21192;40.182;44.516;2023-02-18T10:49:02;21.92;;;12.25;;
34988;SDS011;21192;40.182;44.516;2023-02-18T10:51:32;37.92;;;12.93;;
34988;SDS011;21192;40.182;44.516;2023-02-18T10:54:01;24.38;;;12.25;;
34988;SDS011;21192;40.182;44.516;2023-02-18T10:59:09;23.02;;;11.93;;
34988;SDS011;21192;40.182;44.516;2023-02-18T11:01:36;26.70;;;13.15;;
34988;SDS011;21192;40.182;44.516;2023-02-18T11:04:06;25.65;;;12.23;;
34988;SDS011;21192;40.182;44.516;2023-02-18T11:06:38;19.27;;;11.10;;
34988;SDS011;21192;40.182;44.516;2023-02-18T11:09:06;19.33;;;10.90;;
34988;SDS011;21192;40.182;44.516;2023-02-18T11:11:58;30.63;;;12.73;;
34988;SDS011;21192;40.182;44.516;2023-02-18T11:14:44;31.23;;;14.20;;
34988;SDS011;21192;40.182;44.516;2023-02-18T11:19:53;39.60;;;16.75;;
34988;SDS011;21192;40.182;44.516;2023-02-18T11:22:30;51.03;;;17.95;;
34988;SDS011;21192;40.182;44.516;2023-02-18T11:25:00;29.20;;;14.88;;
34988;SDS011;21192;40.182;44.516;2023-02-18T11:27:32;27.45;;;12.50;;
34988;SDS011;21192;40.182;44.516;2023-02-18T11:30:33;30.27;;;13.20;;
34988;SDS011;21192;40.182;44.516;2023-02-18T11:33:02;32.60;;;12.43;;
34988;SDS011;21192;40.182;44.516;2023-02-18T11:35:33;25.05;;;11.45;;
34988;SDS011;21192;40.182;44.516;2023-02-18T11:38:01;25.50;;;11.32;;
34988;SDS011;21192;40.182;44.516;2023-02-18T11:40:38;30.60;;;12.05;;
34988;SDS011;21192;40.182;44.516;2023-02-18T11:43:14;24.70;;;10.40;;
34988;SDS011;21192;40.182;44.516;2023-02-18T11:45:41;29.33;;;15.25;;
34988;SDS011;21192;40.182;44.516;2023-02-18T11:48:13;24.05;;;11.63;;
34988;SDS011;21192;40.182;44.516;2023-02-18T11:50:44;34.78;;;18.45;;
34988;SDS011;21192;40.182;44.516;2023-02-18T11:55:56;38.78;;;16.83;;
34988;SDS011;21192;40.182;44.516;2023-02-18T11:58:23;25.23;;;13.85;;
34988;SDS011;21192;40.182;44.516;2023-02-18T12:00:51;38.50;;;15.88;;
34988;SDS011;21192;40.182;44.516;2023-02-18T12:06:13;28.25;;;13.27;;
34988;SDS011;21192;40.182;44.516;2023-02-18T12:08:48;30.95;;;13.32;;
34988;SDS011;21192;40.182;44.516;2023-02-18T12:11:41;28.60;;;13.40;;
34988;SDS011;21192;40.182;44.516;2023-02-18T12:14:15;41.80;;;12.48;;
34988;SDS011;21192;40.182;44.516;2023-02-18T12:17:06;25.75;;;12.52;;
34988;SDS011;21192;40.182;44.516;2023-02-18T12:27:45;31.55;;;14.02;;
34988;SDS011;21192;40.182;44.516;2023-02-18T12:45:08;35.38;;;13.95;;
34988;SDS011;21192;40.182;44.516;2023-02-18T12:55:50;31.40;;;11.80;;
34988;SDS011;21192;40.182;44.516;2023-02-18T13:01:42;27.38;;;11.55;;
34988;SDS011;21192;40.182;44.516;2023-02-18T13:04:32;31.80;;;14.07;;
34988;SDS011;21192;40.182;44.516;2023-02-18T13:17:59;21.58;;;11.02;;
34988;SDS011;21192;40.182;44.516;2023-02-18T13:23:21;24.17;;;12.80;;
34988;SDS011;21192;40.182;44.516;2023-02-18T13:25:59;29.05;;;14.70;;
34988;SDS011;21192;40.182;44.516;2023-02-18T13:31:24;32.05;;;14.88;;
34988;SDS011;21192;40.182;44.516;2023-02-18T13:40:30;31.02;;;15.52;;
34988;SDS011;21192;40.182;44.516;2023-02-18T13:43:19;31.20;;;15.88;;
34988;SDS011;21192;40.182;44.516;2023-02-18T13:46:30;36.72;;;17.83;;
34988;SDS011;21192;40.182;44.516;2023-02-18T13:48:58;33.00;;;16.00;;
34988;SDS011;21192;40.182;44.516;2023-02-18T13:51:31;27.38;;;14.70;;
34988;SDS011;21192;40.182;44.516;2023-02-18T13:56:51;31.23;;;14.90;;
34988;SDS011;21192;40.182;44.516;2023-02-18T14:02:06;30.90;;;15.00;;
34988;SDS011;21192;40.182;44.516;2023-02-18T14:04:53;32.33;;;15.18;;
34988;SDS011;21192;40.182;44.516;2023-02-18T14:23:12;32.00;;;15.55;;
34988;SDS011;21192;40.182;44.516;2023-02-18T14:26:07;34.45;;;15.77;;
34988;SDS011;21192;40.182;44.516;2023-02-18T14:28:40;31.98;;;15.23;;
34988;SDS011;21192;40.182;44.516;2023-02-18T14:33:41;24.92;;;15.45;;
34988;SDS011;21192;40.182;44.516;2023-02-18T14:39:21;30.60;;;15.73;;
34988;SDS011;21192;40.182;44.516;2023-02-18T14:47:13;32.67;;;15.73;;
34988;SDS011;21192;40.182;44.516;2023-02-18T14:49:53;37.45;;;16.00;;
34988;SDS011;21192;40.182;44.516;2023-02-18T14:55:27;30.38;;;16.05;;
34988;SDS011;21192;40.182;44.516;2023-02-18T14:58:00;42.45;;;18.08;;
34988;SDS011;21192;40.182;44.516;2023-02-18T15:00:29;34.00;;;16.58;;
34988;SDS011;21192;40.182;44.516;2023-02-18T15:02:59;44.15;;;18.27;;
34988;SDS011;21192;40.182;44.516;2023-02-18T15:05:27;37.63;;;18.85;;
34988;SDS011;21192;40.182;44.516;2023-02-18T15:07:55;37.22;;;18.38;;
34988;SDS011;21192;40.182;44.516;2023-02-18T15:10:39;42.95;;;21.40;;
34988;SDS011;21192;40.182;44.516;2023-02-18T15:13:10;49.03;;;21.75;;
34988;SDS011;21192;40.182;44.516;2023-02-18T15:15:42;45.15;;;23.42;;
34988;SDS011;21192;40.182;44.516;2023-02-18T15:18:17;46.35;;;22.58;;
34988;SDS011;21192;40.182;44.516;2023-02-18T15:21:04;40.00;;;21.27;;
34988;SDS011;21192;40.182;44.516;2023-02-18T15:23:34;41.42;;;22.80;;
34988;SDS011;21192;40.182;44.516;2023-02-18T15:26:01;44.55;;;22.00;;
34988;SDS011;21192;40.182;44.516;2023-02-18T15:28:29;47.83;;;23.52;;
34988;SDS011;21192;40.182;44.516;2023-02-18T15:30:57;50.40;;;26.42;;
34988;SDS011;21192;40.182;44.516;2023-02-18T15:33:25;50.20;;;27.55;;
34988;SDS011;21192;40.182;44.516;2023-02-18T15:35:51;56.50;;;26.92;;
34988;SDS011;21192;40.182;44.516;2023-02-18T15:38:35;45.88;;;26.38;;
34988;SDS011;21192;40.182;44.516;2023-02-18T15:41:07;45.53;;;22.92;;
34988;SDS011;21192;40.182;44.516;2023-02-18T15:43:36;45.65;;;21.52;;
34988;SDS011;21192;40.182;44.516;2023-02-18T15:46:03;51.17;;;22.42;;
34988;SDS011;21192;40.182;44.516;2023-02-18T15:48:38;46.38;;;21.77;;
34988;SDS011;21192;40.182;44.516;2023-02-18T15:51:10;44.90;;;22.75;;
34988;SDS011;21192;40.182;44.516;2023-02-18T15:53:39;52.50;;;24.30;;
34988;SDS011;21192;40.182;44.516;2023-02-18T15:56:13;54.80;;;26.58;;
34988;SDS011;21192;40.182;44.516;2023-02-18T15:58:44;66.00;;;30.02;;
34988;SDS011;21192;40.182;44.516;2023-02-18T16:01:26;72.95;;;34.10;;
34988;SDS011;21192;40.182;44.516;2023-02-18T16:03:54;79.18;;;38.65;;
34988;SDS011;21192;40.182;44.516;2023-02-18T16:06:22;91.30;;;44.50;;
34988;SDS011;21192;40.182;44.516;2023-02-18T16:08:58;80.32;;;38.53;;
34988;SDS011;21192;40.182;44.516;2023-02-18T16:11:25;94.65;;;42.65;;
34988;SDS011;21192;40.182;44.516;2023-02-18T16:13:55;86.75;;;37.00;;
34988;SDS011;21192;40.182;44.516;2023-02-18T16:16:31;74.35;;;36.08;;
34988;SDS011;21192;40.182;44.516;2023-02-18T16:18:59;98.15;;;44.90;;
34988;SDS011;21192;40.182;44.516;2023-02-18T16:24:03;83.70;;;42.15;;
34988;SDS011;21192;40.182;44.516;2023-02-18T16:26:56;102.32;;;43.28;;
34988;SDS011;21192;40.182;44.516;2023-02-18T16:31:50;118.07;;;51.35;;
34988;SDS011;21192;40.182;44.516;2023-02-18T16:34:16;106.70;;;49.67;;
34988;SDS011;21192;40.182;44.516;2023-02-18T16:36:42;102.60;;;48.17;;
34988;SDS011;21192;40.182;44.516;2023-02-18T16:39:28;123.82;;;50.05;;
34988;SDS011;21192;40.182;44.516;2023-02-18T16:41:57;122.75;;;51.67;;
34988;SDS011;21192;40.182;44.516;2023-02-18T16:44:23;111.03;;;49.00;;
34988;SDS011;21192;40.182;44.516;2023-02-18T16:46:48;96.88;;;44.95;;
34988;SDS011;21192;40.182;44.516;2023-02-18T16:49:14;99.40;;;43.70;;
34988;SDS011;21192;40.182;44.516;2023-02-18T16:51:41;90.22;;;43.13;;
34988;SDS011;21192;40.182;44.516;2023-02-18T16:54:11;93.18;;;44.40;;
34988;SDS011;21192;40.182;44.516;2023-02-18T16:56:37;80.68;;;38.05;;
34988;SDS011;21192;40.182;44.516;2023-02-18T16:59:04;91.10;;;42.55;;
34988;SDS011;21192;40.182;44.516;2023-02-18T17:01:31;84.85;;;42.17;;
34988;SDS011;21192;40.182;44.516;2023-02-18T17:04:02;92.28;;;43.17;;
34988;SDS011;21192;40.182;44.516;2023-02-18T17:06:29;83.28;;;41.65;;
34988;SDS011;21192;40.182;44.516;2023-02-18T17:08:57;80.88;;;36.38;;
34988;SDS011;21192;40.182;44.516;2023-02-18T17:13:51;85.32;;;38.35;;